Latest Weather Observations for Inverell RS

IDN60801

Issued at 3:32 pm EST Saturday 28 May 2016 (issued every 30 minutes, with the page automatically refreshed every 10 minutes)

About weather observations | Map of weather stations | Latest weather observations for NSW | Other Formats
Station Details ID: 056018 Name: INVERELL RESEARCH CENTRE Lat: -29.78 Lon: 151.08 Height: 664.0 m
Data from the previous 72 hours. | See also: Recent months at Inverell RS
Date/Time
EST
Temp
°C
App
Temp
°C
Dew
Point
Rel
Hum
%
Delta-T
°C
Wind Press
QNH
hPa
Press
MSL
hPa
Rain
since 9 am
mm
Dir
 
Spd
km/h
Gust
km/h
Spd
kts
Gust
kts
28/03:30pm 11.3 6.5 2.4 54 4.0 WNW 17 33 9 18 1012.1 - 0.4
28/03:00pm 11.2 7.2 2.8 56 3.8 W 13 24 7 13 1011.8 1011.1 0.4
28/02:30pm 11.5 7.3 3.7 58 3.6 WNW 15 32 8 17 1011.6 - 0.4
28/02:00pm 13.0 8.0 4.4 56 4.1 W 20 37 11 20 1011.3 - 0.4
28/01:30pm 11.3 8.6 7.3 76 2.0 WNW 11 24 6 13 1011.4 - 0.4
28/01:00pm 11.2 6.0 5.3 67 2.8 W 22 41 12 22 1011.4 - 0.2
28/12:30pm 12.2 7.2 4.4 59 3.7 WNW 20 39 11 21 1011.6 - 0.0
28/12:00pm 11.2 7.2 4.9 65 3.0 W 15 32 8 17 1011.9 1011.2 0.0
28/11:30am 12.6 7.8 5.8 63 3.3 NW 20 33 11 18 1011.8 - 0.0
28/11:00am 10.8 5.4 6.5 75 2.1 NW 24 35 13 19 1012.2 - 0.0
28/10:30am 10.9 4.4 4.7 65 2.9 W 28 43 15 23 1012.9 - 0.0
28/10:28am 11.1 4.6 4.7 64 3.0 W 28 41 15 22 1012.8 - 0.0
28/10:00am 10.0 7.3 5.4 73 2.2 N 9 15 5 8 1012.9 - 0.0
28/09:30am 9.8 7.1 5.4 74 2.1 N 9 13 5 7 1013.4 - 0.0
28/09:00am 8.1 6.5 4.6 78 1.6 ENE 2 6 1 3 1013.4 1012.7 0.0
28/08:30am 6.6 5.3 3.9 83 1.2 CALM 0 4 0 2 1013.3 - 0.0
28/08:00am 5.3 3.9 3.7 89 0.7 CALM 0 0 0 0 1013.3 - 0.0
28/07:30am 3.4 1.8 2.4 93 0.4 CALM 0 0 0 0 1013.3 - 0.0
28/07:00am 2.3 0.6 1.8 96 0.2 CALM 0 0 0 0 1013.1 - 0.0
28/06:30am 2.3 0.6 2.1 99 0.1 CALM 0 0 0 0 1013.1 - 0.0
28/06:00am 2.3 0.6 2.1 99 0.1 CALM 0 0 0 0 1012.8 1012.0 0.0
28/05:30am 2.3 0.6 2.1 99 0.1 CALM 0 2 0 1 1012.6 - 0.0
28/05:00am 2.5 0.9 2.3 99 0.1 CALM 0 0 0 0 1012.7 - 0.0
28/04:30am 2.5 0.8 2.0 96 0.2 CALM 0 0 0 0 1012.8 - 0.0
28/04:00am 3.1 1.5 2.6 96 0.2 CALM 0 0 0 0 1012.7 - 0.0
28/03:30am 3.2 1.6 2.7 96 0.2 CALM 0 6 0 3 1013.0 - 0.0
28/03:00am 3.0 1.4 2.5 96 0.2 CALM 0 0 0 0 1013.0 1012.2 0.0
28/02:30am 3.1 1.5 2.6 96 0.2 CALM 0 0 0 0 1013.2 - 0.0
28/02:00am 3.7 2.2 2.8 94 0.4 CALM 0 6 0 3 1013.5 - 0.0
28/01:30am 5.0 3.7 3.9 93 0.5 CALM 0 0 0 0 1013.7 - 0.0
28/01:00am 4.8 3.5 3.9 94 0.4 CALM 0 0 0 0 1013.7 - 0.0
28/12:30am 5.2 2.7 3.8 91 0.6 SSE 6 7 3 4 1013.9 - 0.0
28/12:00am 4.8 2.1 3.7 93 0.5 SSE 7 7 4 4 1014.1 1013.3 0.0
 
Date/Time
EST
Temp
°C
App
Temp
°C
Dew
Point
Rel
Hum
%
Delta-T
°C
Wind Press
QNH
hPa
Press
MSL
hPa
Rain
since 9 am
mm
Dir
 
Spd
km/h
Gust
km/h
Spd
kts
Gust
kts
27/11:30pm 5.4 3.7 4.0 91 0.6 SSE 2 6 1 3 1014.3 - 0.0
27/11:00pm 5.4 4.0 3.8 89 0.7 CALM 0 0 0 0 1014.2 - 0.0
27/10:30pm 5.5 4.2 4.1 91 0.6 CALM 0 0 0 0 1014.2 - 0.0
27/10:00pm 6.4 5.1 4.2 86 1.0 CALM 0 4 0 2 1013.9 - 0.0
27/09:30pm 8.0 5.5 4.5 78 1.6 W 7 11 4 6 1014.1 - 0.0
27/09:00pm 8.4 5.4 4.2 75 1.9 WNW 9 11 5 6 1014.2 1013.4 0.0
27/08:30pm 8.7 6.0 3.8 71 2.2 WNW 7 13 4 7 1013.8 - 0.0
27/08:00pm 8.4 6.4 4.2 75 1.9 W 4 11 2 6 1013.6 - 0.0
27/07:30pm 9.2 5.4 3.9 69 2.4 NW 13 19 7 10 1013.0 - 0.0
27/07:00pm 9.3 7.7 4.3 71 2.3 W 2 13 1 7 1012.9 - 0.0
27/06:30pm 10.0 6.1 3.6 64 2.9 NW 13 20 7 11 1012.0 - 0.0
27/06:00pm 10.3 6.5 3.8 64 3.0 WNW 13 17 7 9 1011.8 1011.1 0.0
27/05:30pm 10.5 7.1 3.8 63 3.1 WNW 11 15 6 8 1011.3 - 0.0
27/05:00pm 11.3 8.2 3.7 59 3.5 NW 9 13 5 7 1011.0 - 0.0
27/04:30pm 12.1 8.9 3.2 54 4.1 WNW 9 15 5 8 1010.4 - 0.0
27/04:00pm 13.3 9.2 2.0 46 5.1 WNW 13 28 7 15 1010.1 - 0.0
27/03:30pm 13.4 8.8 1.3 43 5.4 WNW 15 26 8 14 1009.7 - 0.0
27/03:00pm 14.3 9.3 1.5 42 5.8 WNW 17 26 9 14 1009.4 1008.6 0.0
27/02:30pm 14.7 9.8 2.1 42 5.8 WNW 17 35 9 19 1009.4 - 0.0
27/02:00pm 15.1 10.3 2.4 42 5.9 WNW 17 33 9 18 1008.9 - 0.0
27/01:30pm 14.5 9.2 1.8 42 5.8 NW 19 32 10 17 1009.0 - 0.0
27/01:00pm 14.5 9.5 1.5 41 5.9 WNW 17 32 9 17 1009.1 - 0.0
27/12:30pm 14.6 10.2 2.5 44 5.6 WNW 15 26 8 14 1009.4 - 0.0
27/12:00pm 14.5 10.6 3.2 46 5.3 W 13 30 7 16 1009.7 1008.9 0.0
27/11:30am 14.5 10.3 4.0 49 5.0 W 15 30 8 16 1009.9 - 0.0
27/11:00am 14.1 10.5 5.1 54 4.4 W 13 22 7 12 1010.0 - 0.0
27/10:30am 13.5 10.3 6.9 64 3.3 W 13 26 7 14 1010.4 - 0.0
27/10:00am 13.0 10.2 8.4 73 2.4 W 13 22 7 12 1011.0 - 0.0
27/09:30am 12.0 9.2 8.5 79 1.8 W 13 19 7 10 1010.7 - 0.0
27/09:00am 12.2 9.5 9.1 81 1.6 W 13 17 7 9 1010.7 1010.0 23.4
27/08:30am 11.6 9.7 8.9 83 1.4 NW 9 13 5 7 1010.5 - 23.4
27/08:00am 11.4 9.6 9.3 87 1.1 WNW 9 15 5 8 1010.3 - 23.4
27/07:30am 11.2 9.8 9.5 89 0.9 NW 7 11 4 6 1010.0 - 23.4
27/07:00am 11.2 9.4 9.5 89 0.9 WNW 9 17 5 9 1009.8 - 23.4
27/06:30am 11.1 9.0 9.8 92 0.7 WNW 11 17 6 9 1009.7 - 23.4
27/06:00am 11.3 8.8 9.8 90 0.8 WNW 13 19 7 10 1009.1 1008.3 23.4
27/05:30am 11.1 9.4 10.0 93 0.6 WNW 9 19 5 10 1008.7 - 23.4
27/05:00am 11.3 9.6 9.8 90 0.8 WNW 9 15 5 8 1008.4 - 23.4
27/04:30am 11.2 10.1 9.9 92 0.7 WNW 6 13 3 7 1008.5 - 23.4
27/04:00am 11.4 10.1 10.1 92 0.7 W 7 13 4 7 1008.4 - 23.4
27/03:30am 11.6 10.5 10.1 90 0.8 W 6 13 3 7 1008.2 - 23.4
27/03:00am 11.9 9.9 10.2 89 0.9 WNW 11 17 6 9 1008.5 1007.7 23.4
27/02:30am 12.2 10.2 10.3 88 1.0 WNW 11 19 6 10 1008.5 - 23.4
27/02:00am 12.4 10.6 10.7 89 0.9 NW 11 22 6 12 1008.8 - 23.4
27/01:30am 12.5 10.0 11.2 92 0.7 WNW 15 28 8 15 1008.9 - 23.4
27/01:00am 12.5 11.6 11.4 93 0.6 WNW 7 15 4 8 1008.1 - 23.2
27/12:30am 12.9 10.1 11.3 90 0.9 WNW 17 30 9 16 1008.5 - 22.4
27/12:00am 13.5 11.8 12.3 92 0.7 W 13 26 7 14 1008.3 1007.5 21.8
 
Date/Time
EST
Temp
°C
App
Temp
°C
Dew
Point
Rel
Hum
%
Delta-T
°C
Wind Press
QNH
hPa
Press
MSL
hPa
Rain
since 9 am
mm
Dir
 
Spd
km/h
Gust
km/h
Spd
kts
Gust
kts
26/11:30pm 13.7 12.2 13.0 96 0.4 WNW 13 24 7 13 1008.4 - 21.6
26/11:00pm 13.8 12.0 13.3 97 0.3 WNW 15 24 8 13 1008.7 - 20.8
26/10:30pm 13.9 12.2 13.6 98 0.2 WNW 15 24 8 13 1008.8 - 20.6
26/10:00pm 13.9 12.6 13.7 99 0.1 WNW 13 22 7 12 1008.8 - 20.6
26/09:30pm 14.0 12.7 13.8 99 0.1 WNW 13 26 7 14 1008.9 - 20.6
26/09:00pm 14.3 12.7 14.0 98 0.2 WNW 15 22 8 12 1009.6 1008.8 20.6
26/08:30pm 13.8 12.4 13.5 98 0.2 WNW 13 28 7 15 1009.6 - 20.6
26/08:00pm 11.1 8.9 10.9 99 0.1 NNW 13 15 7 8 1009.7 - 20.4
26/07:30pm 11.1 10.1 10.9 99 0.1 NNW 7 9 4 5 1009.8 - 19.2
26/07:00pm 10.9 9.4 10.7 99 0.1 NW 9 11 5 6 1009.8 - 16.4
26/06:30pm 10.9 11.1 10.5 97 0.2 CALM 0 0 0 0 1010.2 - 12.4
26/06:00pm 10.8 10.6 10.6 99 0.1 S 2 7 1 4 1010.2 1009.4 11.0
26/05:30pm 10.5 8.9 10.3 99 0.1 S 9 11 5 6 1009.7 - 8.4
26/05:00pm 10.5 9.9 10.3 99 0.1 SE 4 7 2 4 1009.7 - 8.4
26/04:30pm 10.6 9.9 10.0 96 0.3 SSE 4 7 2 4 1009.9 - 8.2
26/04:00pm 10.4 9.2 10.2 99 0.1 SSE 7 11 4 6 1010.0 - 8.0
26/03:30pm 10.3 7.8 9.7 96 0.3 SSW 13 20 7 11 1011.0 - 6.2
26/03:00pm 10.5 7.8 8.9 90 0.8 S 13 17 7 9 1011.1 1010.3 3.4
26/02:30pm 11.1 8.7 8.8 86 1.2 E 11 17 6 9 1009.3 - 2.0
26/02:00pm 10.9 8.4 8.3 84 1.3 E 11 15 6 8 1010.4 - 2.0
26/01:30pm 11.2 8.5 7.2 76 2.0 S 11 19 6 10 1011.8 - 0.6
26/01:00pm 13.6 10.9 5.4 57 4.0 SSW 9 15 5 8 1012.7 - 0.0
26/12:30pm 13.5 9.3 3.7 51 4.6 SSW 15 28 8 15 1012.3 - 0.0
26/12:21pm 15.1 10.9 1.7 40 6.1 S 13 26 7 14 1012.3 - 0.0
26/12:00pm 20.1 15.6 -0.3 25 9.3 NW 13 28 7 15 1011.7 1010.9 0.0
26/11:30am 20.5 14.5 -3.0 20 10.2 N 19 28 10 15 1011.4 - 0.0
26/11:00am 19.3 12.9 -4.9 19 10.0 N 20 28 11 15 1012.2 - 0.0
26/10:30am 17.4 10.8 -6.6 19 9.4 N 20 32 11 17 1013.1 - 0.0
26/10:00am 17.4 11.5 -6.1 19 9.3 N 17 30 9 16 1013.7 - 0.0
26/09:30am 15.1 9.5 -6.7 21 8.3 N 15 28 8 15 1014.3 - 0.0
26/09:00am 14.1 8.5 -6.6 23 7.8 N 15 26 8 14 1014.7 1014.0 0.0
26/08:30am 13.1 8.8 -5.0 28 7.0 N 9 13 5 7 1014.5 - 0.0
26/08:00am 12.3 9.3 -4.9 30 6.6 N 2 7 1 4 1014.9 - 0.0
26/07:30am 8.7 6.1 -5.3 36 5.1 CALM 0 2 0 1 1015.2 - 0.0
26/07:00am 8.2 5.6 -4.9 39 4.8 CALM 0 0 0 0 1015.4 - 0.0
26/06:30am 6.6 4.0 -5.2 42 4.2 CALM 0 0 0 0 1015.4 - 0.0
26/06:00am 6.3 3.8 -4.1 47 3.8 CALM 0 0 0 0 1015.4 1014.7 0.0
26/05:30am 6.6 4.0 -4.8 44 4.1 CALM 0 0 0 0 1015.3 - 0.0
26/05:00am 6.8 4.1 -6.1 39 4.5 CALM 0 0 0 0 1015.3 - 0.0
26/04:30am 6.6 4.0 -4.8 44 4.1 CALM 0 4 0 2 1015.2 - 0.0
26/04:00am 5.8 3.2 -5.3 45 3.9 CALM 0 0 0 0 1015.1 - 0.0
26/03:30am 4.9 2.2 -5.9 45 3.7 CALM 0 0 0 0 1015.3 - 0.0
26/03:00am 4.7 2.0 -6.2 45 3.7 CALM 0 4 0 2 1016.2 1015.5 0.0
26/02:30am 5.2 2.1 -5.9 44 3.8 ESE 2 7 1 4 1016.0 - 0.0
26/02:00am 4.2 1.4 -7.1 43 3.7 CALM 0 4 0 2 1016.5 - 0.0
26/01:30am 4.7 1.9 -7.1 42 3.9 CALM 0 2 0 1 1016.6 - 0.0
26/01:00am 5.4 2.7 -6.4 42 4.0 CALM 0 0 0 0 1016.7 - 0.0
26/12:30am 6.6 3.8 -7.3 36 4.7 CALM 0 0 0 0 1017.0 - 0.0
26/12:00am 6.0 2.8 -7.1 38 4.4 SSE 2 6 1 3 1017.2 1016.6 0.0
 
Date/Time
EST
Temp
°C
App
Temp
°C
Dew
Point
Rel
Hum
%
Delta-T
°C
Wind Press
QNH
hPa
Press
MSL
hPa
Rain
since 9 am
mm
Dir
 
Spd
km/h
Gust
km/h
Spd
kts
Gust
kts
25/11:30pm 6.1 2.5 -6.9 39 4.4 S 4 9 2 5 1017.5 - 0.0
25/11:00pm 6.4 2.4 -7.3 37 4.6 SSE 6 9 3 5 1017.9 - 0.0
25/10:30pm 7.0 3.1 -6.6 37 4.7 SSE 6 7 3 4 1018.0 - 0.0
25/10:00pm 8.3 4.8 -6.5 34 5.2 SSE 4 7 2 4 1018.2 - 0.0
25/09:30pm 8.5 4.3 -7.5 31 5.5 S 7 11 4 6 1018.3 - 0.0
25/09:00pm 8.7 6.1 -5.3 36 5.1 CALM 0 0 0 0 1018.1 1017.4 0.0
25/08:30pm 9.2 6.4 -3.7 40 4.9 S 2 6 1 3 1017.9 - 0.0
25/08:00pm 10.1 6.3 -4.1 36 5.4 NW 7 13 4 7 1017.7 - 0.0
25/07:30pm 11.3 7.1 -3.9 34 5.9 W 9 13 5 7 1017.7 - 0.0
25/07:00pm 14.7 9.6 -4.9 25 7.7 W 13 19 7 10 1017.6 - 0.0
25/06:30pm 14.3 9.6 -5.2 25 7.6 W 11 15 6 8 1017.5 - 0.0
25/06:00pm 14.0 9.4 -8.4 20 8.1 W 9 13 5 7 1016.9 1016.2 0.0
25/05:30pm 14.2 9.6 -8.4 20 8.2 W 9 11 5 6 1016.7 - 0.0
25/05:00pm 15.0 10.6 -9.7 17 8.8 W 7 9 4 5 1016.5 - 0.0
25/04:30pm 18.5 13.6 -12.0 11 10.8 WNW 9 15 5 8 1016.6 - 0.0
25/04:00pm 19.8 14.5 -11.7 11 11.4 NW 11 19 6 10 1016.6 - 0.0

Other Formats:

Comma delimited format used in spreadsheet applications
http://www.bom.gov.au/fwo/IDN60801/IDN60801.94541.axf

JavaScript Object Notation format (JSON) in row-major order
http://www.bom.gov.au/fwo/IDN60801/IDN60801.94541.json